sensor_id;sensor_type;location;lat;lon;timestamp;temperature;humidity
56761;DHT22;42633;44.494;11.356;2023-01-19T07:22:25;6.80;99.90
56761;DHT22;42633;44.494;11.356;2023-01-19T07:25:30;6.80;99.90
56761;DHT22;42633;44.494;11.356;2023-01-19T15:49:52;6.60;99.90
56761;DHT22;42633;44.494;11.356;2023-01-19T15:52:56;6.60;99.90
56761;DHT22;42633;44.494;11.356;2023-01-19T15:56:01;6.70;99.90
56761;DHT22;42633;44.494;11.356;2023-01-19T15:59:05;6.80;99.90
56761;DHT22;42633;44.494;11.356;2023-01-19T16:02:12;6.70;99.90
56761;DHT22;42633;44.494;11.356;2023-01-19T16:05:16;6.60;99.90
56761;DHT22;42633;44.494;11.356;2023-01-19T16:08:20;6.50;99.90
56761;DHT22;42633;44.494;11.356;2023-01-19T16:11:25;6.50;99.90
56761;DHT22;42633;44.494;11.356;2023-01-19T16:14:29;6.50;99.90
56761;DHT22;42633;44.494;11.356;2023-01-19T16:17:33;6.50;99.90
56761;DHT22;42633;44.494;11.356;2023-01-19T16:20:37;6.50;99.90
56761;DHT22;42633;44.494;11.356;2023-01-19T16:23:41;6.50;99.90
56761;DHT22;42633;44.494;11.356;2023-01-19T16:26:45;6.40;99.90
56761;DHT22;42633;44.494;11.356;2023-01-19T16:29:49;6.40;99.90
56761;DHT22;42633;44.494;11.356;2023-01-19T16:32:53;6.30;99.90
56761;DHT22;42633;44.494;11.356;2023-01-19T16:36:19;6.30;99.90
56761;DHT22;42633;44.494;11.356;2023-01-19T16:39:24;6.40;99.90
56761;DHT22;42633;44.494;11.356;2023-01-19T16:42:27;6.40;99.90
56761;DHT22;42633;44.494;11.356;2023-01-19T16:45:33;6.40;99.90
56761;DHT22;42633;44.494;11.356;2023-01-19T16:48:37;6.40;99.90
56761;DHT22;42633;44.494;11.356;2023-01-19T16:51:42;6.30;99.90
56761;DHT22;42633;44.494;11.356;2023-01-19T16:54:47;6.20;99.90
56761;DHT22;42633;44.494;11.356;2023-01-19T16:57:50;6.10;99.90
56761;DHT22;42633;44.494;11.356;2023-01-19T17:00:55;6.00;99.90
56761;DHT22;42633;44.494;11.356;2023-01-19T17:03:59;6.10;99.90
56761;DHT22;42633;44.494;11.356;2023-01-19T17:07:05;6.00;99.90
56761;DHT22;42633;44.494;11.356;2023-01-19T17:10:10;5.80;99.90
56761;DHT22;42633;44.494;11.356;2023-01-19T17:13:18;5.70;99.90
56761;DHT22;42633;44.494;11.356;2023-01-19T17:16:24;5.50;99.90
56761;DHT22;42633;44.494;11.356;2023-01-19T17:19:28;5.40;99.90
56761;DHT22;42633;44.494;11.356;2023-01-19T17:22:32;5.40;99.90
56761;DHT22;42633;44.494;11.356;2023-01-19T17:25:55;5.40;99.90
56761;DHT22;42633;44.494;11.356;2023-01-19T17:29:01;5.40;99.90
56761;DHT22;42633;44.494;11.356;2023-01-19T17:32:06;5.40;99.90
56761;DHT22;42633;44.494;11.356;2023-01-19T17:35:10;5.30;99.90
56761;DHT22;42633;44.494;11.356;2023-01-19T17:38:15;5.30;99.90
56761;DHT22;42633;44.494;11.356;2023-01-19T17:41:28;5.20;99.90
56761;DHT22;42633;44.494;11.356;2023-01-19T17:44:32;5.30;99.90
56761;DHT22;42633;44.494;11.356;2023-01-19T17:47:37;5.30;99.90
56761;DHT22;42633;44.494;11.356;2023-01-19T17:50:43;5.40;99.90
56761;DHT22;42633;44.494;11.356;2023-01-19T17:53:50;5.50;99.90
56761;DHT22;42633;44.494;11.356;2023-01-19T17:56:54;5.60;99.90
56761;DHT22;42633;44.494;11.356;2023-01-19T18:01:28;5.50;99.90
56761;DHT22;42633;44.494;11.356;2023-01-19T18:04:32;5.50;99.90
56761;DHT22;42633;44.494;11.356;2023-01-19T18:07:39;5.50;99.90
56761;DHT22;42633;44.494;11.356;2023-01-19T18:10:55;5.50;99.90
56761;DHT22;42633;44.494;11.356;2023-01-19T18:13:59;5.50;99.90
56761;DHT22;42633;44.494;11.356;2023-01-19T18:17:05;5.40;99.90
56761;DHT22;42633;44.494;11.356;2023-01-19T18:20:10;5.40;99.90
56761;DHT22;42633;44.494;11.356;2023-01-19T18:23:14;5.40;99.90
56761;DHT22;42633;44.494;11.356;2023-01-19T18:26:20;5.30;99.90
56761;DHT22;42633;44.494;11.356;2023-01-19T18:29:25;5.40;99.90
56761;DHT22;42633;44.494;11.356;2023-01-19T18:32:29;5.30;99.90
56761;DHT22;42633;44.494;11.356;2023-01-19T18:35:33;5.30;99.90
56761;DHT22;42633;44.494;11.356;2023-01-19T18:38:39;5.40;99.90
56761;DHT22;42633;44.494;11.356;2023-01-19T18:41:44;5.30;99.90
56761;DHT22;42633;44.494;11.356;2023-01-19T18:44:48;5.30;99.90
56761;DHT22;42633;44.494;11.356;2023-01-19T18:47:52;5.30;99.90
56761;DHT22;42633;44.494;11.356;2023-01-19T18:50:56;5.30;99.90
56761;DHT22;42633;44.494;11.356;2023-01-19T18:54:06;5.20;99.90
56761;DHT22;42633;44.494;11.356;2023-01-19T18:57:10;5.30;99.90
56761;DHT22;42633;44.494;11.356;2023-01-19T19:00:15;5.20;99.90
56761;DHT22;42633;44.494;11.356;2023-01-19T19:03:19;5.20;99.90
56761;DHT22;42633;44.494;11.356;2023-01-19T19:06:24;5.10;99.90
56761;DHT22;42633;44.494;11.356;2023-01-19T19:09:30;5.10;99.90
56761;DHT22;42633;44.494;11.356;2023-01-19T19:12:34;5.00;99.90
56761;DHT22;42633;44.494;11.356;2023-01-19T19:15:38;4.90;99.90
56761;DHT22;42633;44.494;11.356;2023-01-19T19:18:46;4.90;99.90
56761;DHT22;42633;44.494;11.356;2023-01-19T19:22:02;4.90;99.90
56761;DHT22;42633;44.494;11.356;2023-01-19T19:25:10;5.00;99.90
56761;DHT22;42633;44.494;11.356;2023-01-19T19:28:14;5.10;99.90
56761;DHT22;42633;44.494;11.356;2023-01-19T19:31:20;5.10;99.90
56761;DHT22;42633;44.494;11.356;2023-01-19T19:34:25;5.10;99.90
56761;DHT22;42633;44.494;11.356;2023-01-19T19:37:29;5.10;99.90
56761;DHT22;42633;44.494;11.356;2023-01-19T19:40:34;5.10;99.90
56761;DHT22;42633;44.494;11.356;2023-01-19T19:43:39;5.10;99.90
56761;DHT22;42633;44.494;11.356;2023-01-19T19:46:44;5.10;99.90
56761;DHT22;42633;44.494;11.356;2023-01-19T19:49:48;5.10;99.90
56761;DHT22;42633;44.494;11.356;2023-01-19T19:52:53;5.10;99.90
56761;DHT22;42633;44.494;11.356;2023-01-19T19:55:59;5.10;99.90
56761;DHT22;42633;44.494;11.356;2023-01-19T19:59:03;5.10;99.90
56761;DHT22;42633;44.494;11.356;2023-01-19T20:02:11;4.90;99.90
56761;DHT22;42633;44.494;11.356;2023-01-19T20:05:16;4.80;99.90
56761;DHT22;42633;44.494;11.356;2023-01-19T20:08:20;4.80;99.90
56761;DHT22;42633;44.494;11.356;2023-01-19T20:11:26;4.90;99.90
56761;DHT22;42633;44.494;11.356;2023-01-19T20:14:30;4.90;99.90
56761;DHT22;42633;44.494;11.356;2023-01-19T20:17:34;5.00;99.90
56761;DHT22;42633;44.494;11.356;2023-01-19T20:20:38;4.90;99.90
56761;DHT22;42633;44.494;11.356;2023-01-19T20:23:43;4.90;99.90
56761;DHT22;42633;44.494;11.356;2023-01-19T20:26:50;4.90;99.90
56761;DHT22;42633;44.494;11.356;2023-01-19T20:29:54;4.90;99.90
56761;DHT22;42633;44.494;11.356;2023-01-19T20:33:00;4.90;99.90
56761;DHT22;42633;44.494;11.356;2023-01-19T20:36:05;4.90;99.90
56761;DHT22;42633;44.494;11.356;2023-01-19T20:39:09;4.90;99.90
56761;DHT22;42633;44.494;11.356;2023-01-19T20:42:15;4.90;99.90
56761;DHT22;42633;44.494;11.356;2023-01-19T20:45:20;4.90;99.90
56761;DHT22;42633;44.494;11.356;2023-01-19T20:48:24;4.90;99.90
56761;DHT22;42633;44.494;11.356;2023-01-19T20:51:28;5.00;99.90
56761;DHT22;42633;44.494;11.356;2023-01-19T20:54:32;5.00;99.90
56761;DHT22;42633;44.494;11.356;2023-01-19T20:57:36;4.90;99.90
56761;DHT22;42633;44.494;11.356;2023-01-19T21:00:40;4.90;99.90
56761;DHT22;42633;44.494;11.356;2023-01-19T21:03:45;4.90;99.90
56761;DHT22;42633;44.494;11.356;2023-01-19T21:06:49;4.80;99.90
56761;DHT22;42633;44.494;11.356;2023-01-19T21:09:54;4.80;99.90
56761;DHT22;42633;44.494;11.356;2023-01-19T21:12:59;4.70;99.90
56761;DHT22;42633;44.494;11.356;2023-01-19T21:16:03;4.70;99.90
56761;DHT22;42633;44.494;11.356;2023-01-19T21:19:08;4.70;99.90
56761;DHT22;42633;44.494;11.356;2023-01-19T21:22:12;4.60;99.90
56761;DHT22;42633;44.494;11.356;2023-01-19T21:25:17;4.50;99.90
56761;DHT22;42633;44.494;11.356;2023-01-19T21:28:27;4.40;99.90
56761;DHT22;42633;44.494;11.356;2023-01-19T21:31:33;4.40;99.90
56761;DHT22;42633;44.494;11.356;2023-01-19T21:34:37;4.40;99.90
56761;DHT22;42633;44.494;11.356;2023-01-19T21:37:42;4.40;99.90
56761;DHT22;42633;44.494;11.356;2023-01-19T21:40:49;4.40;99.90
56761;DHT22;42633;44.494;11.356;2023-01-19T21:43:53;4.40;99.90
56761;DHT22;42633;44.494;11.356;2023-01-19T21:46:58;4.50;99.90
56761;DHT22;42633;44.494;11.356;2023-01-19T21:50:05;4.50;99.90
56761;DHT22;42633;44.494;11.356;2023-01-19T21:53:09;4.50;99.90
56761;DHT22;42633;44.494;11.356;2023-01-19T21:56:14;4.50;99.90
56761;DHT22;42633;44.494;11.356;2023-01-19T21:59:19;4.60;99.90
56761;DHT22;42633;44.494;11.356;2023-01-19T22:02:24;4.70;99.90
56761;DHT22;42633;44.494;11.356;2023-01-19T22:05:28;4.80;99.90
56761;DHT22;42633;44.494;11.356;2023-01-19T22:08:33;4.80;99.90
56761;DHT22;42633;44.494;11.356;2023-01-19T22:11:37;4.90;99.90
56761;DHT22;42633;44.494;11.356;2023-01-19T22:14:48;4.80;99.90
56761;DHT22;42633;44.494;11.356;2023-01-19T22:17:55;4.80;99.90
56761;DHT22;42633;44.494;11.356;2023-01-19T22:21:10;4.80;99.90
56761;DHT22;42633;44.494;11.356;2023-01-19T22:24:15;4.70;99.90
56761;DHT22;42633;44.494;11.356;2023-01-19T22:27:19;4.60;99.90
56761;DHT22;42633;44.494;11.356;2023-01-19T22:30:22;4.60;99.90
56761;DHT22;42633;44.494;11.356;2023-01-19T22:33:27;4.60;99.90
56761;DHT22;42633;44.494;11.356;2023-01-19T22:36:32;4.50;99.90
56761;DHT22;42633;44.494;11.356;2023-01-19T22:39:36;4.60;99.90
